sensor_id;sensor_type;location;lat;lon;timestamp;P1;durP1;ratioP1;P2;durP2;ratioP2
10293;SDS011;5192;50.328;7.610;2022-09-11T00:02:32;34.17;;;28.80;;
10293;SDS011;5192;50.328;7.610;2022-09-11T00:05:01;31.53;;;27.50;;
10293;SDS011;5192;50.328;7.610;2022-09-11T00:07:31;33.10;;;27.47;;
10293;SDS011;5192;50.328;7.610;2022-09-11T00:10:00;29.30;;;26.07;;
10293;SDS011;5192;50.328;7.610;2022-09-11T00:12:31;29.77;;;26.33;;
10293;SDS011;5192;50.328;7.610;2022-09-11T00:14:59;29.17;;;26.00;;
10293;SDS011;5192;50.328;7.610;2022-09-11T00:17:30;32.90;;;26.37;;
10293;SDS011;5192;50.328;7.610;2022-09-11T00:20:00;31.47;;;25.33;;
10293;SDS011;5192;50.328;7.610;2022-09-11T00:22:52;28.63;;;24.80;;
10293;SDS011;5192;50.328;7.610;2022-09-11T00:25:33;29.70;;;24.90;;
10293;SDS011;5192;50.328;7.610;2022-09-11T00:28:18;31.13;;;25.50;;
10293;SDS011;5192;50.328;7.610;2022-09-11T00:33:51;27.87;;;24.23;;
10293;SDS011;5192;50.328;7.610;2022-09-11T00:36:21;29.13;;;23.80;;
10293;SDS011;5192;50.328;7.610;2022-09-11T00:38:49;28.07;;;24.53;;
10293;SDS011;5192;50.328;7.610;2022-09-11T00:41:20;28.07;;;23.40;;
10293;SDS011;5192;50.328;7.610;2022-09-11T00:46:59;27.30;;;23.10;;
10293;SDS011;5192;50.328;7.610;2022-09-11T00:49:47;25.07;;;21.87;;
10293;SDS011;5192;50.328;7.610;2022-09-11T00:52:54;24.87;;;22.20;;
10293;SDS011;5192;50.328;7.610;2022-09-11T00:55:52;28.97;;;23.13;;
10293;SDS011;5192;50.328;7.610;2022-09-11T00:58:41;26.37;;;23.13;;
10293;SDS011;5192;50.328;7.610;2022-09-11T01:01:30;27.07;;;22.63;;
10293;SDS011;5192;50.328;7.610;2022-09-11T01:03:59;25.17;;;22.53;;
10293;SDS011;5192;50.328;7.610;2022-09-11T01:06:51;29.67;;;23.57;;
10293;SDS011;5192;50.328;7.610;2022-09-11T01:09:40;26.00;;;23.20;;
10293;SDS011;5192;50.328;7.610;2022-09-11T01:15:16;29.47;;;25.80;;
10293;SDS011;5192;50.328;7.610;2022-09-11T01:21:10;28.37;;;25.17;;
10293;SDS011;5192;50.328;7.610;2022-09-11T01:27:05;35.10;;;26.00;;
10293;SDS011;5192;50.328;7.610;2022-09-11T01:33:08;29.90;;;25.53;;
10293;SDS011;5192;50.328;7.610;2022-09-11T01:39:05;28.93;;;25.47;;
10293;SDS011;5192;50.328;7.610;2022-09-11T01:44:26;30.73;;;25.10;;
10293;SDS011;5192;50.328;7.610;2022-09-11T01:47:01;28.80;;;25.77;;
10293;SDS011;5192;50.328;7.610;2022-09-11T01:52:23;33.53;;;26.27;;
10293;SDS011;5192;50.328;7.610;2022-09-11T01:54:58;28.63;;;24.60;;
10293;SDS011;5192;50.328;7.610;2022-09-11T01:57:29;30.63;;;26.00;;
10293;SDS011;5192;50.328;7.610;2022-09-11T02:00:15;29.13;;;26.03;;
10293;SDS011;5192;50.328;7.610;2022-09-11T02:02:47;30.50;;;26.47;;
10293;SDS011;5192;50.328;7.610;2022-09-11T02:05:48;31.83;;;25.47;;
10293;SDS011;5192;50.328;7.610;2022-09-11T02:11:30;33.83;;;26.90;;
10293;SDS011;5192;50.328;7.610;2022-09-11T02:14:12;33.80;;;28.33;;
10293;SDS011;5192;50.328;7.610;2022-09-11T02:20:02;32.27;;;25.93;;
10293;SDS011;5192;50.328;7.610;2022-09-11T02:22:52;29.73;;;26.37;;
10293;SDS011;5192;50.328;7.610;2022-09-11T02:25:26;31.97;;;28.17;;
10293;SDS011;5192;50.328;7.610;2022-09-11T02:27:56;33.97;;;27.87;;
10293;SDS011;5192;50.328;7.610;2022-09-11T02:30:26;33.73;;;27.10;;
10293;SDS011;5192;50.328;7.610;2022-09-11T02:32:57;31.40;;;28.00;;
10293;SDS011;5192;50.328;7.610;2022-09-11T02:35:25;36.67;;;29.10;;
10293;SDS011;5192;50.328;7.610;2022-09-11T02:44:14;38.17;;;30.97;;
10293;SDS011;5192;50.328;7.610;2022-09-11T02:59:52;32.93;;;26.17;;
10293;SDS011;5192;50.328;7.610;2022-09-11T03:02:29;31.30;;;24.40;;
10293;SDS011;5192;50.328;7.610;2022-09-11T03:05:03;29.30;;;23.87;;
10293;SDS011;5192;50.328;7.610;2022-09-11T03:07:49;29.80;;;24.73;;
10293;SDS011;5192;50.328;7.610;2022-09-11T03:10:21;30.30;;;25.33;;
10293;SDS011;5192;50.328;7.610;2022-09-11T03:12:46;30.40;;;25.10;;
10293;SDS011;5192;50.328;7.610;2022-09-11T03:15:38;32.80;;;26.60;;
10293;SDS011;5192;50.328;7.610;2022-09-11T03:18:06;32.60;;;26.23;;
10293;SDS011;5192;50.328;7.610;2022-09-11T03:21:01;30.97;;;25.50;;
10293;SDS011;5192;50.328;7.610;2022-09-11T03:23:28;34.33;;;26.97;;
10293;SDS011;5192;50.328;7.610;2022-09-11T03:26:13;34.77;;;27.03;;
10293;SDS011;5192;50.328;7.610;2022-09-11T03:28:42;32.17;;;25.70;;
10293;SDS011;5192;50.328;7.610;2022-09-11T03:31:11;33.13;;;25.30;;
10293;SDS011;5192;50.328;7.610;2022-09-11T03:33:38;24.63;;;20.33;;
10293;SDS011;5192;50.328;7.610;2022-09-11T03:36:09;23.33;;;18.70;;
10293;SDS011;5192;50.328;7.610;2022-09-11T03:38:57;27.03;;;22.50;;
10293;SDS011;5192;50.328;7.610;2022-09-11T03:41:27;27.90;;;22.47;;
10293;SDS011;5192;50.328;7.610;2022-09-11T03:44:01;25.67;;;21.43;;
10293;SDS011;5192;50.328;7.610;2022-09-11T03:46:30;24.73;;;20.77;;
10293;SDS011;5192;50.328;7.610;2022-09-11T03:49:00;22.27;;;18.47;;
10293;SDS011;5192;50.328;7.610;2022-09-11T03:51:32;21.17;;;18.30;;
10293;SDS011;5192;50.328;7.610;2022-09-11T03:54:03;25.70;;;19.17;;
10293;SDS011;5192;50.328;7.610;2022-09-11T03:56:40;22.27;;;19.80;;
10293;SDS011;5192;50.328;7.610;2022-09-11T03:59:10;26.60;;;20.47;;
10293;SDS011;5192;50.328;7.610;2022-09-11T04:01:38;25.93;;;20.27;;
10293;SDS011;5192;50.328;7.610;2022-09-11T04:04:11;27.17;;;20.47;;
10293;SDS011;5192;50.328;7.610;2022-09-11T04:06:40;27.67;;;22.20;;
10293;SDS011;5192;50.328;7.610;2022-09-11T04:09:07;27.30;;;22.87;;
10293;SDS011;5192;50.328;7.610;2022-09-11T04:11:40;27.50;;;22.33;;
10293;SDS011;5192;50.328;7.610;2022-09-11T04:14:08;28.20;;;22.30;;
10293;SDS011;5192;50.328;7.610;2022-09-11T04:16:40;28.73;;;22.17;;
10293;SDS011;5192;50.328;7.610;2022-09-11T04:19:11;24.63;;;21.10;;
10293;SDS011;5192;50.328;7.610;2022-09-11T04:21:41;24.30;;;20.50;;
10293;SDS011;5192;50.328;7.610;2022-09-11T04:24:09;23.87;;;19.53;;
10293;SDS011;5192;50.328;7.610;2022-09-11T04:26:35;27.47;;;21.40;;
10293;SDS011;5192;50.328;7.610;2022-09-11T04:29:05;25.47;;;19.67;;
10293;SDS011;5192;50.328;7.610;2022-09-11T04:31:57;22.80;;;19.27;;
10293;SDS011;5192;50.328;7.610;2022-09-11T04:34:25;22.17;;;19.80;;
10293;SDS011;5192;50.328;7.610;2022-09-11T04:37:19;26.33;;;20.77;;
10293;SDS011;5192;50.328;7.610;2022-09-11T04:39:50;23.33;;;19.77;;
10293;SDS011;5192;50.328;7.610;2022-09-11T04:42:20;26.03;;;21.80;;
10293;SDS011;5192;50.328;7.610;2022-09-11T04:44:48;26.40;;;21.67;;
10293;SDS011;5192;50.328;7.610;2022-09-11T04:47:16;28.67;;;21.53;;
10293;SDS011;5192;50.328;7.610;2022-09-11T04:49:59;28.37;;;22.47;;
10293;SDS011;5192;50.328;7.610;2022-09-11T04:52:26;28.27;;;22.23;;
10293;SDS011;5192;50.328;7.610;2022-09-11T04:55:01;26.70;;;22.07;;
10293;SDS011;5192;50.328;7.610;2022-09-11T04:57:30;28.23;;;22.10;;
10293;SDS011;5192;50.328;7.610;2022-09-11T05:00:03;27.57;;;21.80;;
10293;SDS011;5192;50.328;7.610;2022-09-11T05:03:01;25.87;;;21.90;;
10293;SDS011;5192;50.328;7.610;2022-09-11T05:05:31;25.90;;;22.77;;
10293;SDS011;5192;50.328;7.610;2022-09-11T05:07:57;27.60;;;22.13;;
10293;SDS011;5192;50.328;7.610;2022-09-11T05:10:27;26.90;;;22.00;;
10293;SDS011;5192;50.328;7.610;2022-09-11T05:13:21;26.53;;;22.20;;
10293;SDS011;5192;50.328;7.610;2022-09-11T05:15:49;26.73;;;22.57;;
10293;SDS011;5192;50.328;7.610;2022-09-11T05:18:15;30.53;;;22.63;;
10293;SDS011;5192;50.328;7.610;2022-09-11T05:20:45;27.07;;;22.67;;
10293;SDS011;5192;50.328;7.610;2022-09-11T05:23:29;25.93;;;22.53;;
10293;SDS011;5192;50.328;7.610;2022-09-11T05:25:59;29.23;;;22.43;;
10293;SDS011;5192;50.328;7.610;2022-09-11T05:28:29;28.13;;;23.07;;
10293;SDS011;5192;50.328;7.610;2022-09-11T05:30:55;26.10;;;22.30;;
10293;SDS011;5192;50.328;7.610;2022-09-11T05:33:42;28.77;;;23.30;;
10293;SDS011;5192;50.328;7.610;2022-09-11T05:36:22;27.27;;;23.20;;
10293;SDS011;5192;50.328;7.610;2022-09-11T05:38:59;28.77;;;23.47;;
10293;SDS011;5192;50.328;7.610;2022-09-11T05:41:31;28.60;;;22.83;;
10293;SDS011;5192;50.328;7.610;2022-09-11T05:43:58;31.50;;;24.70;;
10293;SDS011;5192;50.328;7.610;2022-09-11T05:46:27;29.10;;;23.60;;
10293;SDS011;5192;50.328;7.610;2022-09-11T05:49:01;28.43;;;24.20;;
10293;SDS011;5192;50.328;7.610;2022-09-11T05:51:31;28.40;;;24.00;;
10293;SDS011;5192;50.328;7.610;2022-09-11T05:54:08;28.90;;;23.43;;
10293;SDS011;5192;50.328;7.610;2022-09-11T05:56:38;27.43;;;22.43;;
10293;SDS011;5192;50.328;7.610;2022-09-11T05:59:10;26.60;;;21.97;;
10293;SDS011;5192;50.328;7.610;2022-09-11T06:01:51;24.90;;;21.00;;
10293;SDS011;5192;50.328;7.610;2022-09-11T06:04:20;24.50;;;20.73;;
10293;SDS011;5192;50.328;7.610;2022-09-11T06:06:47;21.93;;;19.73;;
10293;SDS011;5192;50.328;7.610;2022-09-11T06:09:12;24.00;;;20.63;;
10293;SDS011;5192;50.328;7.610;2022-09-11T06:11:47;25.37;;;21.80;;
10293;SDS011;5192;50.328;7.610;2022-09-11T06:14:20;23.57;;;20.93;;
10293;SDS011;5192;50.328;7.610;2022-09-11T06:16:49;25.20;;;20.20;;
10293;SDS011;5192;50.328;7.610;2022-09-11T06:19:15;22.10;;;18.73;;
10293;SDS011;5192;50.328;7.610;2022-09-11T06:21:50;25.23;;;19.63;;
10293;SDS011;5192;50.328;7.610;2022-09-11T06:24:16;19.40;;;17.40;;
10293;SDS011;5192;50.328;7.610;2022-09-11T06:26:50;21.87;;;18.97;;
10293;SDS011;5192;50.328;7.610;2022-09-11T06:29:19;22.77;;;18.20;;
10293;SDS011;5192;50.328;7.610;2022-09-11T06:31:45;21.53;;;19.17;;
10293;SDS011;5192;50.328;7.610;2022-09-11T06:34:16;21.20;;;18.43;;
10293;SDS011;5192;50.328;7.610;2022-09-11T06:36:45;21.73;;;18.00;;
10293;SDS011;5192;50.328;7.610;2022-09-11T06:39:12;22.03;;;18.17;;
10293;SDS011;5192;50.328;7.610;2022-09-11T06:41:58;22.30;;;18.47;;
10293;SDS011;5192;50.328;7.610;2022-09-11T06:44:29;19.70;;;17.60;;
10293;SDS011;5192;50.328;7.610;2022-09-11T06:47:00;23.63;;;19.20;;
10293;SDS011;5192;50.328;7.610;2022-09-11T06:49:29;20.57;;;18.37;;
10293;SDS011;5192;50.328;7.610;2022-09-11T06:52:00;23.03;;;19.43;;
10293;SDS011;5192;50.328;7.610;2022-09-11T06:54:31;22.47;;;19.20;;
10293;SDS011;5192;50.328;7.610;2022-09-11T06:57:02;22.17;;;19.90;;
10293;SDS011;5192;50.328;7.610;2022-09-11T06:59:36;20.57;;;18.57;;
10293;SDS011;5192;50.328;7.610;2022-09-11T07:02:03;21.90;;;17.60;;
10293;SDS011;5192;50.328;7.610;2022-09-11T07:04:30;20.73;;;18.37;;
10293;SDS011;5192;50.328;7.610;2022-09-11T07:07:00;21.20;;;18.97;;
10293;SDS011;5192;50.328;7.610;2022-09-11T07:09:37;23.23;;;19.67;;
10293;SDS011;5192;50.328;7.610;2022-09-11T07:12:10;20.90;;;18.67;;
10293;SDS011;5192;50.328;7.610;2022-09-11T07:14:39;20.70;;;17.93;;
10293;SDS011;5192;50.328;7.610;2022-09-11T07:17:11;21.73;;;18.63;;
10293;SDS011;5192;50.328;7.610;2022-09-11T07:19:40;20.17;;;18.00;;
10293;SDS011;5192;50.328;7.610;2022-09-11T07:22:11;22.23;;;18.77;;
10293;SDS011;5192;50.328;7.610;2022-09-11T07:24:58;21.87;;;19.23;;
10293;SDS011;5192;50.328;7.610;2022-09-11T07:27:31;21.57;;;18.73;;
10293;SDS011;5192;50.328;7.610;2022-09-11T07:30:00;25.20;;;20.20;;
10293;SDS011;5192;50.328;7.610;2022-09-11T07:32:29;26.07;;;21.00;;
10293;SDS011;5192;50.328;7.610;2022-09-11T07:35:01;21.83;;;19.37;;
10293;SDS011;5192;50.328;7.610;2022-09-11T07:37:30;20.97;;;18.83;;
10293;SDS011;5192;50.328;7.610;2022-09-11T07:39:56;21.70;;;17.43;;
10293;SDS011;5192;50.328;7.610;2022-09-11T07:42:25;21.43;;;18.23;;
10293;SDS011;5192;50.328;7.610;2022-09-11T07:44:59;19.80;;;17.53;;
10293;SDS011;5192;50.328;7.610;2022-09-11T07:47:26;26.30;;;21.03;;
10293;SDS011;5192;50.328;7.610;2022-09-11T07:49:53;22.50;;;19.30;;
10293;SDS011;5192;50.328;7.610;2022-09-11T07:52:21;23.50;;;19.47;;
10293;SDS011;5192;50.328;7.610;2022-09-11T07:54:48;22.47;;;18.50;;
10293;SDS011;5192;50.328;7.610;2022-09-11T07:57:17;23.27;;;19.00;;
10293;SDS011;5192;50.328;7.610;2022-09-11T07:59:46;23.53;;;20.33;;
10293;SDS011;5192;50.328;7.610;2022-09-11T08:02:14;25.40;;;20.43;;
10293;SDS011;5192;50.328;7.610;2022-09-11T08:04:42;27.63;;;22.10;;
10293;SDS011;5192;50.328;7.610;2022-09-11T08:07:10;26.30;;;21.97;;
10293;SDS011;5192;50.328;7.610;2022-09-11T08:09:39;24.50;;;21.17;;
10293;SDS011;5192;50.328;7.610;2022-09-11T08:12:11;25.43;;;21.23;;
10293;SDS011;5192;50.328;7.610;2022-09-11T08:14:37;23.90;;;20.67;;
10293;SDS011;5192;50.328;7.610;2022-09-11T08:17:22;27.57;;;22.10;;
10293;SDS011;5192;50.328;7.610;2022-09-11T08:19:49;26.50;;;22.70;;
10293;SDS011;5192;50.328;7.610;2022-09-11T08:22:19;25.57;;;22.87;;
10293;SDS011;5192;50.328;7.610;2022-09-11T08:24:46;27.27;;;22.40;;
10293;SDS011;5192;50.328;7.610;2022-09-11T08:27:22;24.13;;;20.43;;
10293;SDS011;5192;50.328;7.610;2022-09-11T08:30:19;22.60;;;19.57;;
10293;SDS011;5192;50.328;7.610;2022-09-11T08:32:47;24.30;;;21.70;;
10293;SDS011;5192;50.328;7.610;2022-09-11T08:35:17;23.07;;;20.60;;
10293;SDS011;5192;50.328;7.610;2022-09-11T08:37:51;22.53;;;20.13;;
10293;SDS011;5192;50.328;7.610;2022-09-11T08:40:20;26.53;;;21.13;;
10293;SDS011;5192;50.328;7.610;2022-09-11T08:42:51;22.77;;;20.33;;
10293;SDS011;5192;50.328;7.610;2022-09-11T08:45:24;25.97;;;21.57;;
10293;SDS011;5192;50.328;7.610;2022-09-11T08:48:22;26.60;;;20.50;;
10293;SDS011;5192;50.328;7.610;2022-09-11T08:50:53;23.63;;;21.07;;
10293;SDS011;5192;50.328;7.610;2022-09-11T08:53:32;24.93;;;20.43;;
10293;SDS011;5192;50.328;7.610;2022-09-11T08:56:02;24.03;;;19.67;;
10293;SDS011;5192;50.328;7.610;2022-09-11T09:17:20;19.10;;;17.07;;
10293;SDS011;5192;50.328;7.610;2022-09-11T09:20:24;20.20;;;17.20;;
10293;SDS011;5192;50.328;7.610;2022-09-11T09:23:15;20.50;;;17.40;;
10293;SDS011;5192;50.328;7.610;2022-09-11T09:25:48;20.07;;;16.70;;
10293;SDS011;5192;50.328;7.610;2022-09-11T09:28:41;20.80;;;17.50;;
10293;SDS011;5192;50.328;7.610;2022-09-11T09:31:11;21.33;;;17.83;;
10293;SDS011;5192;50.328;7.610;2022-09-11T09:39:51;21.63;;;16.87;;
10293;SDS011;5192;50.328;7.610;2022-09-11T09:45:30;20.13;;;16.97;;
10293;SDS011;5192;50.328;7.610;2022-09-11T09:48:39;21.40;;;18.53;;
10293;SDS011;5192;50.328;7.610;2022-09-11T09:51:11;19.73;;;17.17;;
10293;SDS011;5192;50.328;7.610;2022-09-11T09:53:54;22.63;;;18.50;;
10293;SDS011;5192;50.328;7.610;2022-09-11T09:57:06;22.23;;;18.97;;
10293;SDS011;5192;50.328;7.610;2022-09-11T10:02:50;22.70;;;17.97;;
10293;SDS011;5192;50.328;7.610;2022-09-11T10:08:00;19.70;;;17.53;;
10293;SDS011;5192;50.328;7.610;2022-09-11T10:10:53;22.20;;;18.70;;
10293;SDS011;5192;50.328;7.610;2022-09-11T10:13:41;21.30;;;18.17;;
10293;SDS011;5192;50.328;7.610;2022-09-11T10:16:24;22.63;;;18.57;;
10293;SDS011;5192;50.328;7.610;2022-09-11T10:18:59;20.57;;;18.40;;
10293;SDS011;5192;50.328;7.610;2022-09-11T10:21:29;20.87;;;17.70;;
10293;SDS011;5192;50.328;7.610;2022-09-11T10:26:49;21.67;;;18.23;;
10293;SDS011;5192;50.328;7.610;2022-09-11T10:29:21;19.53;;;17.27;;
10293;SDS011;5192;50.328;7.610;2022-09-11T10:31:52;17.97;;;16.00;;
10293;SDS011;5192;50.328;7.610;2022-09-11T10:34:37;18.30;;;16.30;;
10293;SDS011;5192;50.328;7.610;2022-09-11T10:40:29;19.60;;;16.13;;
10293;SDS011;5192;50.328;7.610;2022-09-11T10:42:58;18.85;;;15.10;;
10293;SDS011;5192;50.328;7.610;2022-09-11T10:45:29;16.37;;;14.70;;
10293;SDS011;5192;50.328;7.610;2022-09-11T10:48:12;15.80;;;14.27;;
10293;SDS011;5192;50.328;7.610;2022-09-11T10:50:55;17.00;;;15.37;;
10293;SDS011;5192;50.328;7.610;2022-09-11T11:02:36;16.90;;;15.10;;
10293;SDS011;5192;50.328;7.610;2022-09-11T11:05:25;16.83;;;15.13;;
10293;SDS011;5192;50.328;7.610;2022-09-11T11:23:39;16.75;;;15.05;;
10293;SDS011;5192;50.328;7.610;2022-09-11T11:37:33;17.17;;;15.38;;
10293;SDS011;5192;50.328;7.610;2022-09-11T11:43:12;16.08;;;14.57;;
10293;SDS011;5192;50.328;7.610;2022-09-11T11:46:16;17.35;;;15.60;;
10293;SDS011;5192;50.328;7.610;2022-09-11T11:52:36;15.40;;;13.90;;
10293;SDS011;5192;50.328;7.610;2022-09-11T12:01:52;14.85;;;13.30;;
10293;SDS011;5192;50.328;7.610;2022-09-11T12:10:21;17.05;;;15.25;;
10293;SDS011;5192;50.328;7.610;2022-09-11T12:13:13;17.65;;;15.85;;
10293;SDS011;5192;50.328;7.610;2022-09-11T12:19:00;16.73;;;15.15;;
10293;SDS011;5192;50.328;7.610;2022-09-11T12:24:21;15.43;;;14.00;;
10293;SDS011;5192;50.328;7.610;2022-09-11T12:30:23;16.95;;;15.20;;
10293;SDS011;5192;50.328;7.610;2022-09-11T12:36:12;16.25;;;14.13;;
10293;SDS011;5192;50.328;7.610;2022-09-11T12:39:17;15.73;;;14.23;;
10293;SDS011;5192;50.328;7.610;2022-09-11T12:45:34;15.27;;;13.82;;
10293;SDS011;5192;50.328;7.610;2022-09-11T12:51:57;13.82;;;12.52;;
10293;SDS011;5192;50.328;7.610;2022-09-11T12:57:28;13.00;;;11.90;;
10293;SDS011;5192;50.328;7.610;2022-09-11T13:00:20;13.20;;;11.90;;
10293;SDS011;5192;50.328;7.610;2022-09-11T13:03:21;12.50;;;11.40;;
10293;SDS011;5192;50.328;7.610;2022-09-11T13:06:09;13.10;;;11.80;;
10293;SDS011;5192;50.328;7.610;2022-09-11T13:17:10;13.15;;;11.85;;
10293;SDS011;5192;50.328;7.610;2022-09-11T13:19:48;12.00;;;10.90;;
10293;SDS011;5192;50.328;7.610;2022-09-11T13:22:37;12.05;;;10.85;;
10293;SDS011;5192;50.328;7.610;2022-09-11T13:25:21;12.27;;;11.18;;
10293;SDS011;5192;50.328;7.610;2022-09-11T13:28:01;11.65;;;10.57;;
10293;SDS011;5192;50.328;7.610;2022-09-11T13:30:59;11.52;;;10.35;;
10293;SDS011;5192;50.328;7.610;2022-09-11T13:33:30;11.35;;;10.35;;
10293;SDS011;5192;50.328;7.610;2022-09-11T13:35:57;10.77;;;9.88;;
10293;SDS011;5192;50.328;7.610;2022-09-11T13:38:36;10.68;;;9.75;;
10293;SDS011;5192;50.328;7.610;2022-09-11T13:41:04;12.27;;;11.18;;
10293;SDS011;5192;50.328;7.610;2022-09-11T13:46:57;9.65;;;8.70;;
10293;SDS011;5192;50.328;7.610;2022-09-11T13:52:21;10.45;;;9.57;;
10293;SDS011;5192;50.328;7.610;2022-09-11T13:54:54;8.32;;;7.65;;
10293;SDS011;5192;50.328;7.610;2022-09-11T13:57:59;8.93;;;8.15;;
10293;SDS011;5192;50.328;7.610;2022-09-11T14:00:40;8.63;;;8.02;;
10293;SDS011;5192;50.328;7.610;2022-09-11T14:03:20;9.93;;;9.02;;
10293;SDS011;5192;50.328;7.610;2022-09-11T14:06:02;8.13;;;7.50;;
10293;SDS011;5192;50.328;7.610;2022-09-11T14:09:03;8.10;;;7.43;;
10293;SDS011;5192;50.328;7.610;2022-09-11T14:11:49;8.23;;;7.43;;
10293;SDS011;5192;50.328;7.610;2022-09-11T14:14:21;9.30;;;8.50;;
10293;SDS011;5192;50.328;7.610;2022-09-11T14:17:01;8.70;;;7.90;;
10293;SDS011;5192;50.328;7.610;2022-09-11T14:19:30;8.88;;;8.10;;
10293;SDS011;5192;50.328;7.610;2022-09-11T14:22:11;8.93;;;7.93;;
10293;SDS011;5192;50.328;7.610;2022-09-11T14:24:55;8.52;;;7.72;;
10293;SDS011;5192;50.328;7.610;2022-09-11T14:30:23;9.48;;;8.68;;
10293;SDS011;5192;50.328;7.610;2022-09-11T14:36:16;9.65;;;8.82;;
10293;SDS011;5192;50.328;7.610;2022-09-11T14:38:49;9.80;;;8.80;;
10293;SDS011;5192;50.328;7.610;2022-09-11T14:41:17;9.75;;;8.85;;
10293;SDS011;5192;50.328;7.610;2022-09-11T14:43:50;9.05;;;8.32;;
10293;SDS011;5192;50.328;7.610;2022-09-11T14:46:19;9.30;;;7.80;;
10293;SDS011;5192;50.328;7.610;2022-09-11T14:48:46;8.80;;;8.00;;
10293;SDS011;5192;50.328;7.610;2022-09-11T14:51:13;9.05;;;8.25;;
10293;SDS011;5192;50.328;7.610;2022-09-11T14:53:39;8.80;;;8.07;;
10293;SDS011;5192;50.328;7.610;2022-09-11T14:56:12;9.35;;;8.48;;
10293;SDS011;5192;50.328;7.610;2022-09-11T14:58:40;8.52;;;7.85;;
10293;SDS011;5192;50.328;7.610;2022-09-11T15:01:07;8.73;;;7.30;;
10293;SDS011;5192;50.328;7.610;2022-09-11T15:03:38;8.88;;;7.95;;
10293;SDS011;5192;50.328;7.610;2022-09-11T15:06:15;8.23;;;7.43;;
10293;SDS011;5192;50.328;7.610;2022-09-11T15:09:02;8.40;;;7.60;;
10293;SDS011;5192;50.328;7.610;2022-09-11T15:11:32;8.48;;;7.68;;
10293;SDS011;5192;50.328;7.610;2022-09-11T15:14:00;8.48;;;7.78;;
10293;SDS011;5192;50.328;7.610;2022-09-11T15:16:42;9.95;;;8.98;;
10293;SDS011;5192;50.328;7.610;2022-09-11T15:19:09;10.40;;;9.48;;
10293;SDS011;5192;50.328;7.610;2022-09-11T15:21:38;9.23;;;8.43;;
10293;SDS011;5192;50.328;7.610;2022-09-11T15:24:11;9.02;;;8.32;;
10293;SDS011;5192;50.328;7.610;2022-09-11T15:26:41;9.10;;;8.20;;
10293;SDS011;5192;50.328;7.610;2022-09-11T15:29:07;9.13;;;8.43;;
10293;SDS011;5192;50.328;7.610;2022-09-11T15:31:39;9.35;;;8.55;;
10293;SDS011;5192;50.328;7.610;2022-09-11T15:34:08;9.43;;;8.52;;
10293;SDS011;5192;50.328;7.610;2022-09-11T15:36:40;8.55;;;7.85;;
10293;SDS011;5192;50.328;7.610;2022-09-11T15:39:10;8.35;;;7.55;;
10293;SDS011;5192;50.328;7.610;2022-09-11T15:41:39;8.80;;;8.00;;
10293;SDS011;5192;50.328;7.610;2022-09-11T15:44:09;8.63;;;7.75;;
10293;SDS011;5192;50.328;7.610;2022-09-11T15:46:37;8.35;;;7.55;;
10293;SDS011;5192;50.328;7.610;2022-09-11T15:49:02;8.45;;;7.65;;
10293;SDS011;5192;50.328;7.610;2022-09-11T15:51:35;8.63;;;7.82;;
10293;SDS011;5192;50.328;7.610;2022-09-11T15:54:00;8.60;;;7.88;;
10293;SDS011;5192;50.328;7.610;2022-09-11T15:56:28;9.05;;;8.27;;
10293;SDS011;5192;50.328;7.610;2022-09-11T15:59:14;7.78;;;7.13;;
10293;SDS011;5192;50.328;7.610;2022-09-11T16:01:44;9.15;;;8.45;;
10293;SDS011;5192;50.328;7.610;2022-09-11T16:04:40;9.32;;;8.02;;
10293;SDS011;5192;50.328;7.610;2022-09-11T16:07:09;9.10;;;8.35;;
10293;SDS011;5192;50.328;7.610;2022-09-11T16:09:40;9.55;;;8.75;;
10293;SDS011;5192;50.328;7.610;2022-09-11T16:12:09;9.68;;;8.88;;
10293;SDS011;5192;50.328;7.610;2022-09-11T16:14:41;8.73;;;7.72;;
10293;SDS011;5192;50.328;7.610;2022-09-11T16:17:08;8.70;;;7.75;;
10293;SDS011;5192;50.328;7.610;2022-09-11T16:19:35;9.27;;;8.38;;
10293;SDS011;5192;50.328;7.610;2022-09-11T16:22:04;8.70;;;8.00;;
10293;SDS011;5192;50.328;7.610;2022-09-11T16:24:31;8.65;;;7.68;;
10293;SDS011;5192;50.328;7.610;2022-09-11T16:27:04;9.20;;;8.40;;
10293;SDS011;5192;50.328;7.610;2022-09-11T16:29:49;9.48;;;8.57;;
10293;SDS011;5192;50.328;7.610;2022-09-11T16:32:23;9.00;;;8.20;;
10293;SDS011;5192;50.328;7.610;2022-09-11T16:35:08;15.20;;;12.90;;
10293;SDS011;5192;50.328;7.610;2022-09-11T16:37:42;9.05;;;8.25;;
10293;SDS011;5192;50.328;7.610;2022-09-11T16:40:08;9.88;;;8.60;;
10293;SDS011;5192;50.328;7.610;2022-09-11T16:42:35;8.70;;;7.80;;
10293;SDS011;5192;50.328;7.610;2022-09-11T16:45:02;8.15;;;7.40;;
10293;SDS011;5192;50.328;7.610;2022-09-11T16:47:30;11.10;;;9.95;;
10293;SDS011;5192;50.328;7.610;2022-09-11T16:50:02;9.32;;;8.52;;
10293;SDS011;5192;50.328;7.610;2022-09-11T16:52:31;15.82;;;11.93;;
10293;SDS011;5192;50.328;7.610;2022-09-11T16:55:00;10.82;;;9.75;;
10293;SDS011;5192;50.328;7.610;2022-09-11T16:57:26;9.75;;;8.85;;
10293;SDS011;5192;50.328;7.610;2022-09-11T16:59:58;12.07;;;10.88;;
10293;SDS011;5192;50.328;7.610;2022-09-11T17:02:29;9.60;;;8.68;;
10293;SDS011;5192;50.328;7.610;2022-09-11T17:05:04;17.38;;;15.57;;
10293;SDS011;5192;50.328;7.610;2022-09-11T17:07:36;11.50;;;10.27;;
10293;SDS011;5192;50.328;7.610;2022-09-11T17:10:16;20.30;;;17.95;;
10293;SDS011;5192;50.328;7.610;2022-09-11T17:12:50;11.02;;;9.57;;
10293;SDS011;5192;50.328;7.610;2022-09-11T17:15:18;10.35;;;9.43;;
10293;SDS011;5192;50.328;7.610;2022-09-11T17:17:50;11.50;;;10.32;;
10293;SDS011;5192;50.328;7.610;2022-09-11T17:20:22;9.20;;;8.30;;
10293;SDS011;5192;50.328;7.610;2022-09-11T17:22:52;10.35;;;9.23;;
10293;SDS011;5192;50.328;7.610;2022-09-11T17:25:20;8.50;;;7.70;;
10293;SDS011;5192;50.328;7.610;2022-09-11T17:27:50;8.20;;;7.38;;
10293;SDS011;5192;50.328;7.610;2022-09-11T17:30:19;8.38;;;7.60;;
10293;SDS011;5192;50.328;7.610;2022-09-11T17:32:49;10.38;;;9.38;;
10293;SDS011;5192;50.328;7.610;2022-09-11T17:35:19;8.80;;;8.00;;
10293;SDS011;5192;50.328;7.610;2022-09-11T17:37:50;9.15;;;8.15;;
10293;SDS011;5192;50.328;7.610;2022-09-11T17:40:23;8.75;;;7.95;;
10293;SDS011;5192;50.328;7.610;2022-09-11T17:42:49;10.47;;;9.23;;
10293;SDS011;5192;50.328;7.610;2022-09-11T17:45:17;11.60;;;9.07;;
10293;SDS011;5192;50.328;7.610;2022-09-11T17:47:53;10.07;;;9.10;;
10293;SDS011;5192;50.328;7.610;2022-09-11T17:50:23;9.77;;;8.90;;
10293;SDS011;5192;50.328;7.610;2022-09-11T17:52:54;11.57;;;8.63;;
10293;SDS011;5192;50.328;7.610;2022-09-11T17:55:20;10.25;;;8.98;;
10293;SDS011;5192;50.328;7.610;2022-09-11T17:57:53;9.80;;;8.90;;
10293;SDS011;5192;50.328;7.610;2022-09-11T18:00:20;10.63;;;9.67;;
10293;SDS011;5192;50.328;7.610;2022-09-11T18:02:48;10.77;;;9.77;;
10293;SDS011;5192;50.328;7.610;2022-09-11T18:05:16;10.87;;;9.77;;
10293;SDS011;5192;50.328;7.610;2022-09-11T18:07:44;11.83;;;9.67;;
10293;SDS011;5192;50.328;7.610;2022-09-11T18:10:13;10.30;;;9.13;;
10293;SDS011;5192;50.328;7.610;2022-09-11T18:12:49;10.43;;;9.40;;
10293;SDS011;5192;50.328;7.610;2022-09-11T18:15:21;9.63;;;8.73;;
10293;SDS011;5192;50.328;7.610;2022-09-11T18:17:50;14.93;;;9.80;;
10293;SDS011;5192;50.328;7.610;2022-09-11T18:20:21;10.47;;;9.57;;
10293;SDS011;5192;50.328;7.610;2022-09-11T18:22:53;10.30;;;9.40;;
10293;SDS011;5192;50.328;7.610;2022-09-11T18:25:37;11.03;;;10.03;;
10293;SDS011;5192;50.328;7.610;2022-09-11T18:28:13;10.53;;;9.43;;
10293;SDS011;5192;50.328;7.610;2022-09-11T18:30:42;11.03;;;9.93;;
10293;SDS011;5192;50.328;7.610;2022-09-11T18:33:10;11.27;;;9.83;;
10293;SDS011;5192;50.328;7.610;2022-09-11T18:35:39;12.23;;;10.77;;
10293;SDS011;5192;50.328;7.610;2022-09-11T18:38:08;11.53;;;10.33;;